createdAt,value
2018-07-02T00:00:57.053Z,39.77
2018-07-02T00:03:09.486Z,39.74
2018-07-02T00:05:21.958Z,40.41
2018-07-02T00:07:34.325Z,39.96
2018-07-02T00:09:47.233Z,39.75
2018-07-02T00:11:59.777Z,39.77
2018-07-02T00:14:12.142Z,40.15
2018-07-02T00:16:24.842Z,39.32
2018-07-02T00:18:37.237Z,40.24
2018-07-02T00:20:49.641Z,40.10
2018-07-02T00:23:02.083Z,40.09
2018-07-02T00:25:14.442Z,39.50
2018-07-02T00:27:26.994Z,39.27
2018-07-02T00:29:39.409Z,39.48
2018-07-02T00:31:51.936Z,39.22
2018-07-02T00:34:04.483Z,39.61
2018-07-02T00:36:16.807Z,39.31
2018-07-02T00:38:29.218Z,39.96
2018-07-02T00:40:41.627Z,40.44
2018-07-02T00:42:53.996Z,40.25
2018-07-02T00:45:06.431Z,40.14
2018-07-02T00:47:18.782Z,40.10
2018-07-02T00:49:31.174Z,39.83
2018-07-02T00:51:43.531Z,40.39
2018-07-02T00:53:55.938Z,39.75
2018-07-02T00:56:08.325Z,40.41
2018-07-02T00:58:20.729Z,40.94
2018-07-02T01:00:33.082Z,40.75
2018-07-02T01:02:45.464Z,41.29
2018-07-02T01:04:57.789Z,39.99
2018-07-02T01:07:10.277Z,40.60
2018-07-02T01:09:22.750Z,41.38
2018-07-02T01:11:35.542Z,41.54
2018-07-02T01:13:48.613Z,41.71
2018-07-02T01:16:01.162Z,41.34
2018-07-02T01:18:13.515Z,40.81
2018-07-02T01:20:25.913Z,41.17
2018-07-02T01:22:38.283Z,41.28
2018-07-02T01:24:50.726Z,41.31
2018-07-02T01:27:03.097Z,41.85
2018-07-02T01:29:15.561Z,41.44
2018-07-02T01:31:28.014Z,41.34
2018-07-02T01:33:40.365Z,41.82
2018-07-02T01:35:52.922Z,41.94
2018-07-02T01:38:05.286Z,41.79
2018-07-02T01:40:17.715Z,42.22
2018-07-02T01:42:30.053Z,42.77
2018-07-02T01:44:42.377Z,42.19
2018-07-02T01:46:54.864Z,43.04
2018-07-02T01:49:07.230Z,42.75
2018-07-02T01:51:19.610Z,42.81
2018-07-02T01:53:31.929Z,43.12
2018-07-02T01:55:44.253Z,44.00
2018-07-02T01:57:56.670Z,43.40
2018-07-02T02:00:09.098Z,42.76
2018-07-02T02:02:21.461Z,43.71
2018-07-02T02:04:33.950Z,44.09
2018-07-02T02:06:46.318Z,43.35
2018-07-02T02:08:58.694Z,43.40
2018-07-02T02:11:11.309Z,44.27
2018-07-02T02:13:23.722Z,43.88
2018-07-02T02:15:36.102Z,44.66
2018-07-02T02:17:48.474Z,44.73
2018-07-02T02:20:00.874Z,44.64
2018-07-02T02:22:13.266Z,44.60
2018-07-02T02:24:25.755Z,45.05
2018-07-02T02:26:38.099Z,44.82
2018-07-02T02:28:50.661Z,45.13
2018-07-02T02:31:03.074Z,45.08
2018-07-02T02:33:15.477Z,45.34
2018-07-02T02:35:27.948Z,45.75
2018-07-02T02:37:40.279Z,45.52
2018-07-02T02:39:52.771Z,46.10
2018-07-02T02:42:05.442Z,45.93
2018-07-02T02:44:17.855Z,46.96
2018-07-02T02:46:30.226Z,46.19
2018-07-02T02:48:42.618Z,46.34
2018-07-02T02:50:55.074Z,45.83
2018-07-02T02:53:07.598Z,45.75
2018-07-02T02:55:20.035Z,46.16
2018-07-02T02:57:32.397Z,45.71
2018-07-02T02:59:44.721Z,46.17
2018-07-02T03:01:57.226Z,45.54
2018-07-02T03:04:09.617Z,45.44
2018-07-02T03:06:22.071Z,45.49
2018-07-02T03:08:34.474Z,45.39
2018-07-02T03:10:46.854Z,46.17
2018-07-02T03:12:59.366Z,45.27
2018-07-02T03:15:11.787Z,45.62
2018-07-02T03:17:24.258Z,45.48
2018-07-02T03:19:36.671Z,46.78
2018-07-02T03:21:49.034Z,46.41
2018-07-02T03:24:01.484Z,46.61
2018-07-02T03:26:13.870Z,45.93
2018-07-02T03:28:26.293Z,45.91
2018-07-02T03:30:38.681Z,46.61
2018-07-02T03:32:51.026Z,47.21
2018-07-02T03:35:03.414Z,47.11
2018-07-02T03:37:15.782Z,46.97
2018-07-02T03:39:28.138Z,47.36
2018-07-02T03:41:40.502Z,47.52
2018-07-02T03:43:52.962Z,46.52
2018-07-02T03:46:05.307Z,46.79
2018-07-02T03:48:17.681Z,47.19
2018-07-02T03:50:30.173Z,46.93
2018-07-02T03:52:42.524Z,46.76
2018-07-02T03:54:54.850Z,46.83
2018-07-02T03:57:07.291Z,47.29
2018-07-02T03:59:19.648Z,46.57
2018-07-02T04:01:32.166Z,46.82
2018-07-02T04:03:44.505Z,47.14
2018-07-02T04:05:56.930Z,47.15
2018-07-02T04:08:09.489Z,47.65
2018-07-02T04:10:22.030Z,47.52
2018-07-02T04:12:34.394Z,47.79
2018-07-02T04:14:46.965Z,48.05
2018-07-02T04:16:59.310Z,48.52
2018-07-02T04:19:12.410Z,47.82
2018-07-02T04:21:24.808Z,48.23
2018-07-02T04:23:37.167Z,47.23
2018-07-02T04:25:49.708Z,47.58
2018-07-02T04:28:02.182Z,47.35
2018-07-02T04:30:14.585Z,47.51
2018-07-02T04:32:27.006Z,47.51
2018-07-02T04:34:39.354Z,47.37
2018-07-02T04:36:51.885Z,46.77
2018-07-02T04:39:06.818Z,47.31
2018-07-02T04:41:19.346Z,47.56
2018-07-02T04:43:31.750Z,46.69
2018-07-02T04:45:44.118Z,45.56
2018-07-02T04:47:56.457Z,46.24
2018-07-02T04:50:08.874Z,45.67
2018-07-02T04:52:21.274Z,45.59
2018-07-02T04:54:33.731Z,44.89
2018-07-02T04:56:46.242Z,44.58
2018-07-02T04:58:58.743Z,45.98
2018-07-02T05:01:11.084Z,44.81
2018-07-02T05:03:23.525Z,45.38
2018-07-02T05:05:35.882Z,45.07
2018-07-02T05:07:48.322Z,45.75
2018-07-02T05:10:00.690Z,44.81
2018-07-02T05:12:13.045Z,45.37
2018-07-02T05:14:25.450Z,44.05
2018-07-02T05:16:37.858Z,45.11
2018-07-02T05:18:50.190Z,44.74
2018-07-02T05:21:02.586Z,45.85
2018-07-02T05:23:14.927Z,44.90
2018-07-02T05:25:27.358Z,44.09
2018-07-02T05:27:39.841Z,42.96
2018-07-02T05:29:52.263Z,44.30
2018-07-02T05:32:04.686Z,43.41
2018-07-02T05:34:17.148Z,43.10
2018-07-02T05:36:29.537Z,44.06
2018-07-02T05:38:41.877Z,42.94
2018-07-02T05:40:54.373Z,43.99
2018-07-02T05:43:06.769Z,43.74
2018-07-02T05:45:19.113Z,41.88
2018-07-02T05:47:31.486Z,41.38
2018-07-02T05:49:44.070Z,41.43
2018-07-02T05:51:56.362Z,42.47
2018-07-02T05:54:08.926Z,40.60
2018-07-02T05:56:21.274Z,41.81
2018-07-02T05:58:33.821Z,40.32
2018-07-02T06:00:46.182Z,42.50
2018-07-02T06:02:58.586Z,41.72
2018-07-02T06:05:11.034Z,40.35
2018-07-02T06:07:23.381Z,40.75
2018-07-02T06:09:35.878Z,40.25
2018-07-02T06:11:48.347Z,41.29
2018-07-02T06:14:00.814Z,39.82
2018-07-02T06:16:13.169Z,41.00
2018-07-02T06:18:25.537Z,39.53
2018-07-02T06:20:38.103Z,39.07
2018-07-02T06:22:50.521Z,38.96
2018-07-02T06:25:03.007Z,38.76
2018-07-02T06:27:15.329Z,38.69
2018-07-02T06:29:27.734Z,38.24
2018-07-02T06:31:40.073Z,38.38
2018-07-02T06:33:52.542Z,37.84
2018-07-02T06:36:04.939Z,37.55
2018-07-02T06:38:17.449Z,38.38
2018-07-02T06:40:30.007Z,37.92
2018-07-02T06:42:42.430Z,37.38
2018-07-02T06:44:54.753Z,37.07
2018-07-02T06:47:07.118Z,36.13
2018-07-02T06:49:19.461Z,36.88
2018-07-02T06:51:32.074Z,36.08
2018-07-02T06:53:44.430Z,36.20
2018-07-02T06:55:56.906Z,36.41
2018-07-02T06:58:10.038Z,37.00
2018-07-02T07:00:25.417Z,37.32
2018-07-02T07:02:37.778Z,35.13
2018-07-02T07:04:50.153Z,35.30
2018-07-02T07:07:02.568Z,34.46
2018-07-02T07:09:14.898Z,34.37
2018-07-02T07:11:27.295Z,33.66
2018-07-02T07:13:39.645Z,32.81
2018-07-02T07:15:52.039Z,32.68
2018-07-02T07:18:04.694Z,34.33
2018-07-02T07:20:17.095Z,33.90
2018-07-02T07:22:29.682Z,33.74
2018-07-02T07:24:42.222Z,31.68
2018-07-02T07:26:54.562Z,32.13
2018-07-02T07:29:06.978Z,32.49
2018-07-02T07:31:19.545Z,32.19
2018-07-02T07:33:31.946Z,31.11
2018-07-02T07:35:44.522Z,30.36
2018-07-02T07:37:57.077Z,29.64
2018-07-02T07:40:09.511Z,31.04
2018-07-02T07:42:22.013Z,30.99
2018-07-02T07:44:34.520Z,31.17
2018-07-02T07:46:46.924Z,30.13
2018-07-02T07:48:59.270Z,29.10
2018-07-02T07:51:11.610Z,31.15
2018-07-02T07:53:27.980Z,29.39
2018-07-02T07:55:43.041Z,30.28
2018-07-02T07:57:55.414Z,31.81
2018-07-02T08:00:07.918Z,29.75
2018-07-02T08:02:20.232Z,28.55
2018-07-02T08:04:32.693Z,28.02
2018-07-02T08:06:47.790Z,29.51
2018-07-02T08:09:02.322Z,28.41
2018-07-02T08:11:14.751Z,28.87
2018-07-02T08:13:27.174Z,29.48
2018-07-02T08:15:39.578Z,27.75
2018-07-02T08:17:52.006Z,29.73
2018-07-02T08:20:05.178Z,29.24
2018-07-02T08:22:17.602Z,28.45
2018-07-02T08:24:29.959Z,29.26
2018-07-02T08:26:49.395Z,27.90
2018-07-02T08:29:01.954Z,27.61
2018-07-02T08:31:14.486Z,26.79
2018-07-02T08:33:26.831Z,28.54
2018-07-02T08:35:39.166Z,26.97
2018-07-02T08:37:51.513Z,27.48
2018-07-02T08:40:04.503Z,28.24
2018-07-02T08:42:17.182Z,28.33
2018-07-02T08:44:29.626Z,28.03
2018-07-02T08:46:42.872Z,27.08
2018-07-02T08:48:55.262Z,29.13
2018-07-02T08:51:07.621Z,26.76
2018-07-02T08:53:20.065Z,28.65
2018-07-02T08:55:32.598Z,27.47
2018-07-02T08:57:45.062Z,27.34
2018-07-02T08:59:57.449Z,26.96
2018-07-02T09:02:10.749Z,27.71
2018-07-02T09:04:23.151Z,26.02
2018-07-02T09:06:35.534Z,26.88
2018-07-02T09:08:48.033Z,26.59
2018-07-02T09:11:00.368Z,28.06
2018-07-02T09:13:12.737Z,28.22
2018-07-02T09:15:25.158Z,26.34
2018-07-02T09:17:37.512Z,26.76
2018-07-02T09:19:50.377Z,27.74
2018-07-02T09:22:02.877Z,27.61
2018-07-02T09:24:15.178Z,25.65
2018-07-02T09:26:27.557Z,26.57
2018-07-02T09:28:39.970Z,25.70
2018-07-02T09:30:52.356Z,25.83
2018-07-02T09:33:04.778Z,25.65
2018-07-02T09:35:21.975Z,26.73
2018-07-02T09:37:34.362Z,26.34
2018-07-02T09:39:46.746Z,25.40
2018-07-02T09:41:59.134Z,25.56
2018-07-02T09:44:11.499Z,27.33
2018-07-02T09:46:23.892Z,26.14
2018-07-02T09:48:36.241Z,26.16
2018-07-02T09:50:48.609Z,25.89
2018-07-02T09:53:00.916Z,25.83
2018-07-02T09:55:13.303Z,25.10
2018-07-02T09:57:25.754Z,25.64
2018-07-02T09:59:38.137Z,26.18
2018-07-02T10:01:50.771Z,25.87
2018-07-02T10:04:03.142Z,25.49
2018-07-02T10:06:15.527Z,26.44
2018-07-02T10:08:27.914Z,25.46
2018-07-02T10:10:40.374Z,24.67
2018-07-02T10:12:52.743Z,24.67
2018-07-02T10:15:05.637Z,25.06
2018-07-02T10:17:18.226Z,25.02
2018-07-02T10:19:30.666Z,25.62
2018-07-02T10:21:43.179Z,25.95
2018-07-02T10:23:56.877Z,25.83
2018-07-02T10:26:09.163Z,25.35
2018-07-02T10:28:21.737Z,24.30
2018-07-02T10:30:34.085Z,24.66
2018-07-02T10:32:46.720Z,25.39
2018-07-02T10:34:59.101Z,27.02
2018-07-02T10:37:14.206Z,24.17
2018-07-02T10:39:26.595Z,25.68
2018-07-02T10:41:38.992Z,25.36
2018-07-02T10:43:51.492Z,26.01
2018-07-02T10:46:03.835Z,26.77
2018-07-02T10:48:17.034Z,25.49
2018-07-02T10:50:30.187Z,26.47
2018-07-02T10:52:42.546Z,25.48
2018-07-02T10:54:54.994Z,25.41
2018-07-02T10:57:07.402Z,25.52
2018-07-02T10:59:19.831Z,25.04
2018-07-02T11:01:32.231Z,24.10
2018-07-02T11:03:44.701Z,24.80
2018-07-02T11:05:57.056Z,24.05
2018-07-02T11:08:09.580Z,25.68
2018-07-02T11:10:22.150Z,24.62
2018-07-02T11:12:34.538Z,26.50
2018-07-02T11:14:46.969Z,25.17
2018-07-02T11:16:59.353Z,24.12
2018-07-02T11:19:11.681Z,24.85
2018-07-02T11:21:24.135Z,24.23
2018-07-02T11:23:36.535Z,25.10
2018-07-02T11:25:49.135Z,24.02
2018-07-02T11:28:02.462Z,23.36
2018-07-02T11:30:14.911Z,24.12
2018-07-02T11:32:27.258Z,23.56
2018-07-02T11:34:39.610Z,23.46
2018-07-02T11:36:51.958Z,22.99
2018-07-02T11:39:10.738Z,23.94
2018-07-02T11:41:23.109Z,23.51
2018-07-02T11:43:35.576Z,23.24
2018-07-02T11:45:47.966Z,22.52
2018-07-02T11:48:00.438Z,22.76
2018-07-02T11:50:12.919Z,22.69
2018-07-02T11:52:25.374Z,23.31
2018-07-02T11:54:37.813Z,23.88
2018-07-02T11:56:50.430Z,24.96
2018-07-02T11:59:02.830Z,24.92
2018-07-02T12:01:15.314Z,24.10
2018-07-02T12:03:28.657Z,24.00
2018-07-02T12:05:41.115Z,24.33
2018-07-02T12:07:53.718Z,22.84
2018-07-02T12:10:06.127Z,23.32
2018-07-02T12:12:18.545Z,22.40
2018-07-02T12:14:31.010Z,24.77
2018-07-02T12:16:43.366Z,26.37
2018-07-02T12:18:55.691Z,24.26
2018-07-02T12:21:08.101Z,25.69
2018-07-02T12:23:20.637Z,23.74
2018-07-02T12:25:33.453Z,24.07
2018-07-02T12:27:45.781Z,23.33
2018-07-02T12:29:58.149Z,24.86
2018-07-02T12:32:10.542Z,26.45
2018-07-02T12:34:22.966Z,25.33
2018-07-02T12:36:35.321Z,25.39
2018-07-02T12:38:47.690Z,23.87
2018-07-02T12:41:00.130Z,24.29
2018-07-02T12:43:12.482Z,24.14
2018-07-02T12:45:25.285Z,23.37
2018-07-02T12:47:37.645Z,23.87
2018-07-02T12:49:50.039Z,24.59
2018-07-02T12:52:02.629Z,25.64
2018-07-02T12:54:15.029Z,25.68
2018-07-02T12:56:27.360Z,24.04
2018-07-02T12:58:39.815Z,24.61
2018-07-02T13:00:52.214Z,23.75
2018-07-02T13:03:04.839Z,24.66
2018-07-02T13:05:17.198Z,24.03
2018-07-02T13:07:29.586Z,24.47
2018-07-02T13:09:42.019Z,24.51
2018-07-02T13:11:54.363Z,24.67
2018-07-02T13:14:10.581Z,23.89
2018-07-02T13:16:23.050Z,25.38
2018-07-02T13:18:35.413Z,26.31
2018-07-02T13:20:50.564Z,25.02
2018-07-02T13:23:03.889Z,26.89
2018-07-02T13:25:16.210Z,24.60
2018-07-02T13:27:28.866Z,23.91
2018-07-02T13:29:41.315Z,25.08
2018-07-02T13:31:53.660Z,23.85
2018-07-02T13:34:06.010Z,23.81
2018-07-02T13:36:18.382Z,24.54
2018-07-02T13:38:30.711Z,25.17
2018-07-02T13:40:43.219Z,25.15
2018-07-02T13:42:55.762Z,24.32
2018-07-02T13:45:08.161Z,26.00
2018-07-02T13:47:20.481Z,24.67
2018-07-02T13:49:32.867Z,24.74
2018-07-02T13:51:45.238Z,26.04
2018-07-02T13:53:57.620Z,24.75
2018-07-02T13:56:10.043Z,24.53
2018-07-02T13:58:22.426Z,23.82
2018-07-02T14:00:34.827Z,24.91
2018-07-02T14:02:47.429Z,24.93
2018-07-02T14:04:59.770Z,24.15
2018-07-02T14:07:12.187Z,23.44
2018-07-02T14:09:24.609Z,23.92
2018-07-02T14:11:38.286Z,24.68
2018-07-02T14:13:52.662Z,24.10
2018-07-02T14:16:05.310Z,23.67
2018-07-02T14:18:17.790Z,22.87
2018-07-02T14:20:30.256Z,23.76
2018-07-02T14:22:42.598Z,23.36
2018-07-02T14:24:55.207Z,24.08
2018-07-02T14:27:07.634Z,23.74
2018-07-02T14:29:19.935Z,23.85
2018-07-02T14:31:32.410Z,24.35
2018-07-02T14:33:47.565Z,24.38
2018-07-02T14:35:59.933Z,23.20
2018-07-02T14:38:12.298Z,22.95
2018-07-02T14:40:24.694Z,23.95
2018-07-02T14:42:37.083Z,24.27
2018-07-02T14:44:49.666Z,23.75
2018-07-02T14:47:02.077Z,24.84
2018-07-02T14:49:14.384Z,24.39
2018-07-02T14:51:26.759Z,22.81
2018-07-02T14:53:39.355Z,23.30
2018-07-02T14:55:51.805Z,24.34
2018-07-02T14:58:04.499Z,23.50
2018-07-02T15:00:16.943Z,23.54
2018-07-02T15:02:29.274Z,23.39
2018-07-02T15:04:43.624Z,23.45
2018-07-02T15:06:56.009Z,22.47
2018-07-02T15:09:10.730Z,24.22
2018-07-02T15:11:23.222Z,23.35
2018-07-02T15:13:35.960Z,24.21
2018-07-02T15:15:48.307Z,23.49
2018-07-02T15:18:00.695Z,23.70
2018-07-02T15:20:13.038Z,24.15
2018-07-02T15:22:26.325Z,23.96
2018-07-02T15:24:38.723Z,24.16
2018-07-02T15:26:51.314Z,24.64
2018-07-02T15:29:03.714Z,24.57
2018-07-02T15:31:16.198Z,24.48
2018-07-02T15:33:28.631Z,23.70
2018-07-02T15:35:41.223Z,23.67
2018-07-02T15:37:54.090Z,23.96
2018-07-02T15:40:06.489Z,24.47
2018-07-02T15:42:18.857Z,23.66
2018-07-02T15:44:31.253Z,23.96
2018-07-02T15:46:43.711Z,24.65
2018-07-02T15:48:56.077Z,24.03
2018-07-02T15:51:08.410Z,24.66
2018-07-02T15:53:20.814Z,24.08
2018-07-02T15:55:33.277Z,24.14
2018-07-02T15:57:45.692Z,23.83
2018-07-02T15:59:58.222Z,24.26
2018-07-02T16:02:10.757Z,25.54
2018-07-02T16:04:23.128Z,25.42
2018-07-02T16:06:35.493Z,24.34
2018-07-02T16:08:47.952Z,23.75
2018-07-02T16:11:00.369Z,24.58
2018-07-02T16:13:12.794Z,24.43
2018-07-02T16:15:25.137Z,25.27
2018-07-02T16:17:37.554Z,24.94
2018-07-02T16:19:50.101Z,24.96
2018-07-02T16:22:03.308Z,24.83
2018-07-02T16:24:15.716Z,25.29
2018-07-02T16:26:28.106Z,25.58
2018-07-02T16:28:40.548Z,25.11
2018-07-02T16:30:53.006Z,25.67
2018-07-02T16:33:05.583Z,25.66
2018-07-02T16:35:17.994Z,26.09
2018-07-02T16:37:30.388Z,26.09
2018-07-02T16:39:42.764Z,25.73
2018-07-02T16:41:55.131Z,25.46
2018-07-02T16:44:07.823Z,25.53
2018-07-02T16:46:20.198Z,25.65
2018-07-02T16:48:32.684Z,24.66
2018-07-02T16:50:45.022Z,26.00
2018-07-02T16:52:57.382Z,24.52
2018-07-02T16:55:09.839Z,25.12
2018-07-02T16:57:22.223Z,25.57
2018-07-02T16:59:34.577Z,24.71
2018-07-02T17:01:47.009Z,24.85
2018-07-02T17:03:59.382Z,24.92
2018-07-02T17:06:11.814Z,24.90
2018-07-02T17:08:24.336Z,26.01
2018-07-02T17:10:36.754Z,25.99
2018-07-02T17:12:49.226Z,24.86
2018-07-02T17:15:01.772Z,25.55
2018-07-02T17:17:14.202Z,25.47
2018-07-02T17:19:26.565Z,25.06
2018-07-02T17:21:39.023Z,25.26
2018-07-02T17:23:51.465Z,25.68
2018-07-02T17:26:03.946Z,25.34
2018-07-02T17:28:16.362Z,25.76
2018-07-02T17:30:28.742Z,25.58
2018-07-02T17:32:41.078Z,25.52
2018-07-02T17:34:53.455Z,26.17
2018-07-02T17:37:05.848Z,26.25
2018-07-02T17:39:18.254Z,25.41
2018-07-02T17:41:30.614Z,25.90
2018-07-02T17:43:43.066Z,25.55
2018-07-02T17:45:55.445Z,25.52
2018-07-02T17:48:07.901Z,26.42
2018-07-02T17:50:20.533Z,25.12
2018-07-02T17:52:32.901Z,25.86
2018-07-02T17:54:45.255Z,26.67
2018-07-02T17:57:01.781Z,26.02
2018-07-02T17:59:14.195Z,25.94
2018-07-02T18:01:26.865Z,26.17
2018-07-02T18:03:39.226Z,26.24
2018-07-02T18:05:51.639Z,26.31
2018-07-02T18:08:04.146Z,25.68
2018-07-02T18:10:16.502Z,26.02
2018-07-02T18:12:29.027Z,26.20
2018-07-02T18:14:41.330Z,26.28
2018-07-02T18:16:53.692Z,26.00
2018-07-02T18:19:06.169Z,26.69
2018-07-02T18:21:18.498Z,27.17
2018-07-02T18:23:30.851Z,26.59
2018-07-02T18:25:43.302Z,26.55
2018-07-02T18:27:55.729Z,27.01
2018-07-02T18:30:08.383Z,27.48
2018-07-02T18:32:20.750Z,27.41
2018-07-02T18:34:33.110Z,27.28
2018-07-02T18:36:45.541Z,26.84
2018-07-02T18:38:57.935Z,27.65
2018-07-02T18:43:33.443Z,27.77
2018-07-02T18:45:45.842Z,27.64
2018-07-02T18:47:58.242Z,27.24
2018-07-02T18:50:10.710Z,27.47
2018-07-02T18:52:23.256Z,27.97
2018-07-02T18:54:35.649Z,28.00
2018-07-02T18:56:48.103Z,27.27
2018-07-02T18:59:00.601Z,27.49
2018-07-02T19:01:13.044Z,28.66
2018-07-02T19:03:25.533Z,28.87
2018-07-02T19:05:38.016Z,28.66
2018-07-02T19:07:50.423Z,29.71
2018-07-02T19:10:02.950Z,29.70
2018-07-02T19:12:15.302Z,28.95
2018-07-02T19:14:27.717Z,29.85
2018-07-02T19:16:40.312Z,30.27
2018-07-02T19:18:52.710Z,29.58
2018-07-02T19:21:05.269Z,30.13
2018-07-02T19:23:17.618Z,30.79
2018-07-02T19:25:30.169Z,30.57
2018-07-02T19:27:42.654Z,31.49
2018-07-02T19:29:55.335Z,31.76
2018-07-02T19:32:07.667Z,31.83
2018-07-02T19:34:20.159Z,33.02
2018-07-02T19:36:32.622Z,33.89
2018-07-02T19:38:45.072Z,34.20
2018-07-02T19:40:57.714Z,36.13
2018-07-02T19:43:10.099Z,36.58
2018-07-02T19:45:22.598Z,35.96
2018-07-02T19:47:34.965Z,36.95
2018-07-02T19:49:47.442Z,37.63
2018-07-02T19:51:59.832Z,37.25
2018-07-02T19:54:12.223Z,38.14
2018-07-02T19:56:24.902Z,38.93
2018-07-02T19:58:37.443Z,39.47
2018-07-02T20:00:49.934Z,39.42
2018-07-02T20:03:02.330Z,39.05
2018-07-02T20:05:14.810Z,39.39
2018-07-02T20:07:27.167Z,38.79
2018-07-02T20:09:39.625Z,39.29
2018-07-02T20:11:52.209Z,38.67
2018-07-02T20:14:04.780Z,38.54
2018-07-02T20:16:17.300Z,39.41
2018-07-02T20:18:29.664Z,38.38
2018-07-02T20:20:42.214Z,38.56
2018-07-02T20:22:54.670Z,38.23
2018-07-02T20:25:07.556Z,37.14
2018-07-02T20:27:19.989Z,36.79
2018-07-02T20:29:32.386Z,36.57
2018-07-02T20:31:44.913Z,35.89
2018-07-02T20:33:57.370Z,35.09
2018-07-02T20:36:09.786Z,35.40
2018-07-02T20:38:22.163Z,35.80
2018-07-02T20:40:34.596Z,36.14
2018-07-02T20:42:46.964Z,35.47
2018-07-02T20:45:00.014Z,35.60
2018-07-02T20:47:12.622Z,36.98
2018-07-02T20:49:25.150Z,36.23
2018-07-02T20:51:37.551Z,37.45
2018-07-02T20:53:49.948Z,37.61
2018-07-02T20:56:02.430Z,38.44
2018-07-02T20:58:14.915Z,38.29
2018-07-02T21:00:29.834Z,38.78
2018-07-02T21:02:42.285Z,38.07
2018-07-02T21:04:54.769Z,38.24
2018-07-02T21:07:07.154Z,39.22
2018-07-02T21:09:19.682Z,40.54
2018-07-02T21:11:32.206Z,39.94
2018-07-02T21:13:44.624Z,40.13
2018-07-02T21:15:56.989Z,40.58
2018-07-02T21:18:09.393Z,40.62
2018-07-02T21:20:21.838Z,41.26
2018-07-02T21:22:34.170Z,40.67
2018-07-02T21:24:46.567Z,40.70
2018-07-02T21:26:59.414Z,41.81
2018-07-02T21:29:11.761Z,40.88
2018-07-02T21:31:24.149Z,41.35
2018-07-02T21:33:36.707Z,41.75
2018-07-02T21:35:49.081Z,42.30
2018-07-02T21:38:01.468Z,42.12
2018-07-02T21:40:13.870Z,42.04
2018-07-02T21:42:26.174Z,42.58
2018-07-02T21:44:38.525Z,43.32
2018-07-02T21:46:51.043Z,43.26
2018-07-02T21:49:03.500Z,43.74
2018-07-02T21:51:15.922Z,43.90
2018-07-02T21:53:28.351Z,43.82
2018-07-02T21:55:40.832Z,43.80
2018-07-02T21:57:53.178Z,44.63
2018-07-02T22:00:08.714Z,45.33
2018-07-02T22:02:21.219Z,45.07
2018-07-02T22:04:33.696Z,44.92
2018-07-02T22:06:46.062Z,45.24
2018-07-02T22:08:58.530Z,45.58
2018-07-02T22:11:10.993Z,45.36
2018-07-02T22:13:23.338Z,46.46
2018-07-02T22:15:35.926Z,46.03
2018-07-02T22:17:48.250Z,46.77
2018-07-02T22:20:00.688Z,46.68
2018-07-02T22:22:13.106Z,46.68
2018-07-02T22:24:25.483Z,45.93
2018-07-02T22:26:38.722Z,46.15
2018-07-02T22:28:51.077Z,46.52
2018-07-02T22:31:03.714Z,47.17
2018-07-02T22:33:16.070Z,47.98
2018-07-02T22:35:28.542Z,46.93
2018-07-02T22:37:40.891Z,48.20
2018-07-02T22:39:53.279Z,47.72
2018-07-02T22:42:05.793Z,47.12
2018-07-02T22:44:18.172Z,47.40
2018-07-02T22:46:30.597Z,48.16
2018-07-02T22:48:43.130Z,48.31
2018-07-02T22:50:55.522Z,48.40
2018-07-02T22:53:07.939Z,48.93
2018-07-02T22:55:20.311Z,48.19
2018-07-02T22:57:32.717Z,48.78
2018-07-02T22:59:45.141Z,49.02
2018-07-02T23:01:57.523Z,48.66
2018-07-02T23:04:09.962Z,48.80
2018-07-02T23:06:22.262Z,49.07
2018-07-02T23:08:34.626Z,48.49
2018-07-02T23:10:47.327Z,49.30
2018-07-02T23:12:59.801Z,48.41
2018-07-02T23:15:12.220Z,48.83
2018-07-02T23:17:24.525Z,48.63
2018-07-02T23:19:36.910Z,48.88
2018-07-02T23:21:49.565Z,49.84
2018-07-02T23:24:01.970Z,49.90
2018-07-02T23:26:14.290Z,48.72
2018-07-02T23:28:26.682Z,49.74
2018-07-02T23:30:39.093Z,48.74
2018-07-02T23:32:51.429Z,49.80
2018-07-02T23:35:03.814Z,49.76
2018-07-02T23:37:16.156Z,49.30
2018-07-02T23:39:28.481Z,50.39
2018-07-02T23:41:41.526Z,50.18
2018-07-02T23:43:53.998Z,50.27
2018-07-02T23:46:06.476Z,51.52
2018-07-02T23:48:18.822Z,51.32
2018-07-02T23:50:31.145Z,51.23
2018-07-02T23:52:43.604Z,51.10
2018-07-02T23:54:56.121Z,51.65
2018-07-02T23:57:08.466Z,52.16
2018-07-02T23:59:20.879Z,51.91
